Time;durP1;ratioP1;P1;durP2;ratioP2;P2;SDS_P1;SDS_P2;PMS_P1;PMS_P2;Temp;Humidity;BMP_temperature;BMP_pressure;BME280_temperature;BME280_humidity;BME280_pressure;Samples;Min_cycle;Max_cycle;Signal;HPM_P1;HPM_P2
2024/04/04 00:01:37;;;;;;;10.90;7.20;;;;;;;9.78;82.41;98317.95;226849;1273;22577;-82
2024/04/04 00:06:38;;;;;;;9.80;6.40;;;;;;;9.81;82.55;98315.95;226813;1272;22543;-82
2024/04/04 00:11:41;;;;;;;9.80;6.40;;;;;;;9.83;82.35;98312.48;226695;1272;22541;-82
2024/04/04 00:16:44;;;;;;;8.60;6.30;;;;;;;9.84;82.30;98314.08;226754;1272;22615;-81
2024/04/04 00:21:46;;;;;;;9.60;6.20;;;;;;;9.85;82.57;98311.77;226890;1273;22583;-83
2024/04/04 00:26:48;;;;;;;9.40;7.40;;;;;;;9.84;82.69;98310.95;226772;1270;23060;-82
2024/04/04 00:31:51;;;;;;;9.90;7.60;;;;;;;9.83;82.67;98307.77;226907;1272;26211;-83
2024/04/04 00:36:54;;;;;;;7.40;6.50;;;;;;;9.82;82.42;98307.16;226871;1273;22531;-82
2024/04/04 00:41:56;;;;;;;11.80;8.00;;;;;;;9.81;82.78;98308.77;226745;1272;22563;-83
2024/04/04 00:46:58;;;;;;;11.40;8.40;;;;;;;9.80;82.77;98305.15;226902;1272;23343;-83
2024/04/04 00:52:05;;;;;;;10.70;8.10;;;;;;;9.79;82.73;98302.06;226760;1272;22539;-83
2024/04/04 00:57:08;;;;;;;11.70;8.70;;;;;;;9.80;82.57;98307.14;226872;1272;22549;-83
2024/04/04 01:02:10;;;;;;;10.90;8.90;;;;;;;9.80;82.55;98307.83;226765;1269;22742;-82
2024/04/04 01:07:14;;;;;;;13.10;9.10;;;;;;;9.80;82.95;98308.52;226879;1272;22544;-82
2024/04/04 01:12:15;;;;;;;10.90;9.00;;;;;;;9.75;82.88;98310.91;226754;1269;22523;-82
2024/04/04 01:17:17;;;;;;;11.70;9.40;;;;;;;9.73;82.78;98315.20;226690;1272;253184;-82
2024/04/04 01:22:20;;;;;;;10.60;9.10;;;;;;;9.75;83.24;98316.05;226906;1272;24261;-82
2024/04/04 01:27:22;;;;;;;13.40;9.50;;;;;;;9.75;83.17;98315.61;226835;1272;22547;-82
2024/04/04 01:32:25;;;;;;;13.70;10.30;;;;;;;9.74;83.26;98316.63;226806;1272;22563;-82
2024/04/04 01:37:27;;;;;;;12.10;9.40;;;;;;;9.71;83.24;98314.04;226935;1272;22531;-82
2024/04/04 01:42:29;;;;;;;13.60;10.30;;;;;;;9.65;83.18;98310.91;226756;1269;22946;-83
2024/04/04 01:47:31;;;;;;;17.40;12.10;;;;;;;9.62;82.98;98305.23;226717;1272;22598;-82
2024/04/04 01:52:33;;;;;;;16.70;11.50;;;;;;;9.58;83.16;98302.48;226832;1273;22707;-82
2024/04/04 01:57:35;;;;;;;13.40;11.00;;;;;;;9.52;83.21;98302.32;226954;1273;22542;-82
2024/04/04 02:02:37;;;;;;;14.00;10.50;;;;;;;9.47;83.62;98301.11;226808;1271;22555;-84
2024/04/04 02:07:39;;;;;;;16.40;13.10;;;;;;;9.44;83.75;98302.84;226882;1271;22616;-84
2024/04/04 02:12:41;;;;;;;17.60;14.40;;;;;;;9.44;84.02;98303.77;226805;1272;22522;-83
2024/04/04 02:17:43;;;;;;;19.40;15.30;;;;;;;9.45;84.00;98298.58;226793;1274;22543;-83
2024/04/04 02:22:45;;;;;;;16.30;14.40;;;;;;;9.46;84.18;98296.29;226782;1272;22539;-82
2024/04/04 02:27:47;;;;;;;18.10;14.00;;;;;;;9.48;84.15;98293.98;226805;1272;25715;-82
2024/04/04 02:32:49;;;;;;;18.40;13.90;;;;;;;9.47;84.23;98296.02;226688;1273;22558;-82
2024/04/04 02:37:52;;;;;;;15.30;12.10;;;;;;;9.46;84.25;98288.41;226924;1270;22555;-82
2024/04/04 02:42:54;;;;;;;16.40;13.30;;;;;;;9.44;83.88;98289.37;226880;1272;23284;-82
2024/04/04 02:47:56;;;;;;;21.80;16.60;;;;;;;9.39;84.08;98292.11;226771;1271;22540;-82
2024/04/04 02:52:58;;;;;;;23.30;16.20;;;;;;;9.31;83.94;98289.59;226683;1269;22547;-81
2024/04/04 02:58:01;;;;;;;19.60;15.20;;;;;;;9.25;83.92;98292.10;226669;1266;22533;-81
2024/04/04 03:03:04;;;;;;;18.90;15.10;;;;;;;9.20;84.08;98293.04;226875;1272;22525;-82
2024/04/04 03:08:10;;;;;;;18.50;14.30;;;;;;;9.17;84.06;98292.41;226869;1272;22536;-82
2024/04/04 03:13:12;;;;;;;16.60;13.40;;;;;;;9.13;83.93;98281.96;226822;1272;22543;-83
2024/04/04 03:18:14;;;;;;;15.20;13.20;;;;;;;9.09;84.22;98285.23;226802;1272;22701;-81
2024/04/04 03:23:17;;;;;;;18.30;14.30;;;;;;;9.06;84.18;98285.38;226762;1272;22523;-83
2024/04/04 03:28:18;;;;;;;19.50;14.90;;;;;;;9.00;84.14;98285.46;226781;1272;25939;-81
2024/04/04 03:33:20;;;;;;;16.90;14.30;;;;;;;8.92;84.24;98289.93;226917;1270;22536;-82
2024/04/04 03:38:22;;;;;;;16.10;12.90;;;;;;;8.80;84.24;98298.21;226881;1272;23645;-81
2024/04/04 03:43:24;;;;;;;13.20;11.80;;;;;;;8.69;84.08;98303.85;226920;1271;25421;-81
2024/04/04 03:48:26;;;;;;;17.20;13.00;;;;;;;8.59;84.38;98309.98;226679;1272;22542;-81
2024/04/04 03:53:28;;;;;;;12.40;10.70;;;;;;;8.47;84.36;98314.23;226829;1273;22567;-82
2024/04/04 03:58:30;;;;;;;15.60;11.40;;;;;;;8.35;84.54;98319.32;226859;1272;22569;-82
2024/04/04 04:03:31;;;;;;;13.10;10.80;;;;;;;8.25;84.60;98312.02;226736;1269;22567;-82
2024/04/04 04:08:35;;;;;;;13.30;11.10;;;;;;;8.14;84.67;98306.46;226811;1272;22722;-81
2024/04/04 04:13:37;;;;;;;15.00;12.90;;;;;;;8.04;84.87;98305.65;226840;1274;22535;-82
2024/04/04 04:18:38;;;;;;;15.20;12.90;;;;;;;7.98;84.54;98300.35;226885;1272;22545;-82
2024/04/04 04:23:41;;;;;;;17.00;12.80;;;;;;;7.91;85.28;98300.62;226716;1272;22484;-82
2024/04/04 04:28:46;;;;;;;16.50;13.10;;;;;;;7.87;84.94;98302.91;226746;1273;22705;-83
2024/04/04 04:33:49;;;;;;;17.00;13.70;;;;;;;7.83;85.49;98308.98;226722;1273;22532;-83
2024/04/04 04:38:51;;;;;;;15.80;13.00;;;;;;;7.79;85.42;98312.97;226847;1273;22566;-82
2024/04/04 04:43:53;;;;;;;15.00;11.50;;;;;;;7.75;85.57;98315.86;226801;1272;22543;-81
2024/04/04 04:48:55;;;;;;;14.60;12.30;;;;;;;7.72;85.62;98321.33;226762;1272;22535;-81
2024/04/04 04:53:56;;;;;;;15.60;13.30;;;;;;;7.70;85.73;98325.36;226810;1273;22571;-82
2024/04/04 04:58:58;;;;;;;16.20;13.90;;;;;;;7.70;85.61;98330.53;226787;1272;22548;-82
2024/04/04 05:04:01;;;;;;;16.60;13.60;;;;;;;7.72;85.90;98333.09;226836;1272;22547;-82
2024/04/04 05:09:03;;;;;;;16.30;13.50;;;;;;;7.76;85.73;98332.59;226917;1251;22530;-82
2024/04/04 05:14:05;;;;;;;15.90;13.40;;;;;;;7.82;86.20;98333.08;226781;1272;24321;-82
2024/04/04 05:19:08;;;;;;;15.80;13.00;;;;;;;7.90;85.81;98333.74;226941;1272;23172;-81
2024/04/04 05:24:10;;;;;;;17.60;13.60;;;;;;;7.99;86.28;98328.80;226869;1274;22527;-83
2024/04/04 05:29:12;;;;;;;14.40;12.60;;;;;;;8.07;86.48;98330.95;226760;1272;24180;-82
2024/04/04 05:34:15;;;;;;;11.50;10.40;;;;;;;8.18;86.45;98336.70;226911;1273;22556;-82
2024/04/04 05:39:17;;;;;;;16.20;11.50;;;;;;;8.31;86.38;98333.91;226807;1273;22548;-81
2024/04/04 05:44:20;;;;;;;15.10;11.00;;;;;;;8.45;86.67;98335.08;226760;1272;22543;-80
2024/04/04 05:49:21;;;;;;;13.90;11.30;;;;;;;8.59;86.50;98341.18;226695;1257;22554;-80
2024/04/04 05:54:23;;;;;;;56.70;46.00;;;;;;;8.77;86.54;98343.73;226485;1254;22537;-80
2024/04/04 05:59:25;;;;;;;15.60;10.90;;;;;;;8.97;86.73;98344.59;226687;1256;22645;-77
2024/04/04 06:04:28;;;;;;;10.20;7.50;;;;;;;9.19;86.53;98345.17;227069;1267;22569;-82
2024/04/04 06:09:43;;;;;;;10.20;7.90;;;;;;;9.41;86.40;98345.20;226731;1270;22948;-80
2024/04/04 06:14:46;;;;;;;8.00;5.70;;;;;;;9.64;86.18;98350.11;226537;1262;22539;-78
2024/04/04 06:19:48;;;;;;;6.50;4.90;;;;;;;9.85;85.43;98344.70;226562;1266;22531;-77
2024/04/04 06:24:50;;;;;;;5.90;4.10;;;;;;;10.00;85.02;98353.79;226403;1266;22569;-79
2024/04/04 06:29:54;;;;;;;4.30;3.90;;;;;;;10.17;84.66;98361.94;226756;1272;26209;-79
2024/04/04 06:34:56;;;;;;;6.70;3.70;;;;;;;10.34;84.18;98363.24;226736;1270;22612;-80
2024/04/04 06:39:58;;;;;;;4.90;4.00;;;;;;;10.50;83.62;98360.71;226811;1251;24337;-79
2024/04/04 06:45:00;;;;;;;4.10;3.30;;;;;;;10.66;83.07;98361.33;226434;1273;23101;-79
2024/04/04 06:50:02;;;;;;;3.80;2.80;;;;;;;10.84;82.95;98358.66;226357;1261;22992;-80
2024/04/04 06:55:18;;;;;;;7.20;5.50;;;;;;;11.01;82.15;98360.49;226133;1269;23807;-78
2024/04/04 07:00:20;;;;;;;3.50;2.30;;;;;;;11.16;81.71;98367.42;226360;1272;22541;-80
2024/04/04 07:05:23;;;;;;;2.90;2.50;;;;;;;11.33;80.89;98369.84;226507;1258;22564;-80
2024/04/04 07:10:25;;;;;;;2.50;2.00;;;;;;;11.45;80.39;98372.58;226598;1257;22545;-79
2024/04/04 07:15:27;;;;;;;6.00;3.80;;;;;;;11.60;80.04;98367.71;226892;1266;22574;-82
2024/04/04 07:20:30;;;;;;;3.10;2.10;;;;;;;11.76;79.31;98367.73;226864;1269;23749;-81
2024/04/04 07:25:32;;;;;;;2.10;1.70;;;;;;;11.93;78.89;98365.02;226968;1260;22531;-82
2024/04/04 07:30:36;;;;;;;4.30;1.70;;;;;;;12.10;78.47;98362.59;226823;1270;22542;-81
2024/04/04 07:35:38;;;;;;;2.40;1.50;;;;;;;12.27;77.44;98372.84;226771;1272;22540;-81
2024/04/04 07:40:41;;;;;;;2.90;1.90;;;;;;;12.45;77.04;98388.35;226958;1264;22589;-81
2024/04/04 07:45:43;;;;;;;3.00;1.90;;;;;;;12.71;76.56;98395.34;226969;1266;25447;-81
2024/04/04 07:50:46;;;;;;;2.90;2.30;;;;;;;12.83;75.21;98403.02;226964;1272;22566;-82
2024/04/04 07:55:48;;;;;;;2.70;2.10;;;;;;;12.85;74.69;98409.17;227031;1270;22587;-81
2024/04/04 08:00:51;;;;;;;3.10;2.20;;;;;;;12.86;73.98;98409.14;226859;1267;22550;-82
2024/04/04 08:05:54;;;;;;;3.80;2.50;;;;;;;12.96;73.99;98407.66;226897;1270;22544;-81
2024/04/04 08:10:56;;;;;;;2.60;1.80;;;;;;;13.14;73.78;98406.75;226918;1269;22559;-82
2024/04/04 08:15:58;;;;;;;2.90;1.80;;;;;;;13.53;74.31;98411.33;226917;1260;22612;-81
2024/04/04 08:21:01;;;;;;;2.10;1.90;;;;;;;13.93;73.48;98407.19;226958;1266;25249;-81
2024/04/04 08:26:04;;;;;;;3.10;1.80;;;;;;;14.25;72.34;98413.98;226844;1267;22539;-81
2024/04/04 08:31:07;;;;;;;1.60;1.50;;;;;;;14.30;70.42;98411.23;226876;1267;22516;-82
2024/04/04 08:36:09;;;;;;;2.70;1.80;;;;;;;14.36;70.20;98407.38;226805;1272;24176;-82
2024/04/04 08:41:13;;;;;;;2.30;1.60;;;;;;;14.54;70.35;98401.75;226882;1267;22547;-82
2024/04/04 08:46:15;;;;;;;2.70;1.60;;;;;;;14.77;69.95;98404.16;226916;1270;22525;-82
2024/04/04 08:51:19;;;;;;;3.20;1.50;;;;;;;15.05;70.22;98407.69;227038;1272;25335;-81
2024/04/04 08:56:22;;;;;;;2.10;1.50;;;;;;;15.33;69.34;98407.70;227024;1264;22481;-79
2024/04/04 09:01:26;;;;;;;1.80;1.50;;;;;;;15.45;68.75;98409.88;226683;1262;22581;-80
2024/04/04 09:06:35;;;;;;;1.50;1.40;;;;;;;15.48;68.38;98413.64;226524;1267;22522;-81
2024/04/04 09:11:37;;;;;;;2.30;1.50;;;;;;;15.55;68.56;98415.95;226653;1251;22632;-79
2024/04/04 09:16:39;;;;;;;2.60;1.20;;;;;;;15.62;68.24;98418.26;226547;1267;25466;-79
2024/04/04 09:21:45;;;;;;;2.40;1.90;;;;;;;15.67;68.19;98417.65;226642;1273;22582;-79
2024/04/04 09:26:47;;;;;;;2.90;1.80;;;;;;;15.68;67.78;98417.15;226649;1273;24258;-78
2024/04/04 09:31:50;;;;;;;1.30;1.10;;;;;;;15.61;66.96;98418.08;226674;1270;22543;-79
2024/04/04 09:36:54;;;;;;;1.40;1.20;;;;;;;15.68;67.21;98413.05;226690;1266;22543;-84
2024/04/04 09:41:58;;;;;;;1.20;1.10;;;;;;;15.95;67.50;98416.33;226646;1270;22599;-80
2024/04/04 09:47:03;;;;;;;2.00;1.50;;;;;;;16.03;66.72;98414.67;226678;1257;24209;-80
2024/04/04 09:52:06;;;;;;;1.20;1.10;;;;;;;16.06;66.23;98416.64;226592;1273;25287;-80
2024/04/04 09:57:09;;;;;;;0.70;0.60;;;;;;;16.45;65.75;98412.76;226663;1266;24217;-80
2024/04/04 10:02:10;;;;;;;0.60;0.60;;;;;;;16.72;64.78;98409.38;226660;1251;22524;-81
2024/04/04 10:07:13;;;;;;;0.90;0.70;;;;;;;16.84;64.18;98411.99;226615;1251;24225;-80
2024/04/04 10:12:15;;;;;;;0.60;0.50;;;;;;;17.09;64.30;98412.99;226503;1267;25266;-83
2024/04/04 10:17:17;;;;;;;0.50;0.50;;;;;;;17.26;63.34;98412.55;226685;1256;22527;-80
2024/04/04 10:22:24;;;;;;;2.20;0.50;;;;;;;17.23;62.68;98412.08;226645;1260;22599;-81
2024/04/04 10:27:26;;;;;;;6.50;0.70;;;;;;;17.22;62.77;98411.31;226569;1260;22559;-81
2024/04/04 10:32:29;;;;;;;2.10;1.30;;;;;;;17.11;62.43;98414.33;226540;1251;22685;-81
2024/04/04 10:37:32;;;;;;;1.10;0.90;;;;;;;16.83;62.43;98416.70;226370;1267;25365;-81
2024/04/04 10:42:34;;;;;;;1.70;1.00;;;;;;;16.56;63.42;98422.27;226915;1250;22568;-80
2024/04/04 10:47:35;;;;;;;2.50;0.80;;;;;;;16.44;63.82;98422.04;226436;1266;22547;-80
2024/04/04 10:52:38;;;;;;;0.50;0.30;;;;;;;16.50;63.63;98417.61;226365;1253;22989;-80
2024/04/04 10:57:40;;;;;;;0.60;0.40;;;;;;;16.75;63.68;98414.36;226352;1266;22535;-80
2024/04/04 11:02:46;;;;;;;2.80;1.70;;;;;;;17.07;63.75;98413.02;226221;1269;22546;-80
2024/04/04 11:07:56;;;;;;;1.30;0.50;;;;;;;17.40;62.88;98415.16;226611;1266;24196;-80
2024/04/04 11:12:58;;;;;;;0.70;0.20;;;;;;;17.67;61.24;98418.73;226477;1269;22565;-80
2024/04/04 11:18:03;;;;;;;0.70;0.20;;;;;;;17.82;61.08;98415.98;226578;1267;22546;-81
2024/04/04 11:23:05;;;;;;;0.90;0.30;;;;;;;17.77;60.26;98415.48;226589;1266;22553;-80
2024/04/04 11:28:07;;;;;;;0.60;0.50;;;;;;;17.58;60.54;98417.61;226760;1269;22683;-83
2024/04/04 11:33:09;;;;;;;1.20;0.60;;;;;;;17.58;60.78;98419.95;226570;1266;22550;-83
2024/04/04 11:38:11;;;;;;;0.60;0.40;;;;;;;17.55;60.80;98424.05;226790;1270;22542;-83
2024/04/04 11:43:14;;;;;;;1.50;0.70;;;;;;;17.40;61.02;98424.77;226813;1269;22526;-84
2024/04/04 11:48:16;;;;;;;0.50;0.50;;;;;;;17.35;61.27;98421.82;226827;1273;22554;-82
2024/04/04 11:53:18;;;;;;;0.80;0.60;;;;;;;17.21;61.13;98425.70;226832;1266;23019;-82
2024/04/04 11:58:20;;;;;;;0.60;0.50;;;;;;;17.00;61.77;98436.14;226797;1267;22541;-79
2024/04/04 12:03:22;;;;;;;1.00;0.90;;;;;;;16.82;62.25;98431.23;226715;1270;22539;-81
2024/04/04 12:08:24;;;;;;;0.90;0.60;;;;;;;16.63;62.82;98433.63;226748;1269;22579;-81
2024/04/04 12:13:28;;;;;;;1.10;1.00;;;;;;;16.80;63.44;98426.42;226795;1257;22639;-82
2024/04/04 12:23:51;;;;;;;1.50;1.40;;;;;;;17.41;63.56;98411.55;226754;1266;22578;-81
2024/04/04 12:29:01;;;;;;;1.80;0.80;;;;;;;17.76;63.00;98411.50;226638;1267;22549;-81
2024/04/04 12:34:03;;;;;;;1.00;0.40;;;;;;;17.99;62.14;98413.80;226572;1272;22545;-81
2024/04/04 12:39:12;;;;;;;0.80;0.50;;;;;;;18.03;61.16;98407.44;226712;1265;22571;-81
2024/04/04 12:44:13;;;;;;;0.60;0.60;;;;;;;18.15;61.68;98404.52;226575;1268;22090;-81
2024/04/04 12:49:15;;;;;;;0.70;0.70;;;;;;;18.27;60.65;98402.04;226773;1266;22534;-81
2024/04/04 12:54:17;;;;;;;2.20;0.70;;;;;;;18.24;60.68;98404.52;226755;1266;22569;-81
2024/04/04 12:59:20;;;;;;;2.90;0.90;;;;;;;18.02;60.59;98412.40;226612;1273;22947;-81
2024/04/04 13:04:23;;;;;;;1.60;1.50;;;;;;;17.87;60.92;98420.99;226758;1250;22528;-81
2024/04/04 13:09:25;;;;;;;0.40;0.40;;;;;;;17.72;60.93;98414.44;226776;1260;22555;-81
2024/04/04 13:14:27;;;;;;;1.30;0.70;;;;;;;17.62;60.87;98410.52;226871;1250;24289;-82
2024/04/04 13:19:29;;;;;;;1.00;0.40;;;;;;;17.61;61.65;98403.77;226642;1266;215369;-83
2024/04/04 13:24:31;;;;;;;0.40;0.40;;;;;;;17.91;61.68;98399.98;226900;1267;22642;-81
2024/04/04 13:29:33;;;;;;;4.90;0.60;;;;;;;18.16;60.93;98394.57;226526;1260;22542;-85
2024/04/04 13:34:35;;;;;;;0.60;0.60;;;;;;;18.24;60.37;98390.16;226712;1250;24235;-81
2024/04/04 13:39:37;;;;;;;0.50;0.40;;;;;;;18.22;59.97;98385.41;226480;1250;22546;-81
2024/04/04 13:44:39;;;;;;;1.00;0.90;;;;;;;18.14;59.93;98379.58;226621;1266;22534;-81
2024/04/04 13:49:40;;;;;;;0.60;0.60;;;;;;;18.22;59.94;98374.98;226555;1266;22551;-81
2024/04/04 13:54:43;;;;;;;0.50;0.50;;;;;;;18.15;59.66;98377.05;226563;1250;22523;-81
2024/04/04 13:59:45;;;;;;;0.80;0.80;;;;;;;18.19;60.22;98364.19;226536;1267;23496;-82
2024/04/04 14:04:48;;;;;;;0.40;0.40;;;;;;;18.30;59.49;98357.91;226440;1273;22582;-81
2024/04/04 14:09:50;;;;;;;1.20;0.50;;;;;;;18.40;57.94;98346.05;226540;1273;22511;-81
2024/04/04 14:14:52;;;;;;;1.90;0.70;;;;;;;18.40;57.06;98354.45;226799;1272;22605;-82
2024/04/04 14:19:55;;;;;;;0.70;0.70;;;;;;;18.37;56.46;98356.23;226926;1270;22649;-81
2024/04/04 14:24:56;;;;;;;0.90;0.70;;;;;;;18.30;56.36;98352.08;226905;1251;22972;-82
2024/04/04 14:30:00;;;;;;;1.00;0.90;;;;;;;18.25;55.89;98342.27;227054;1271;25278;-81
2024/04/04 14:35:03;;;;;;;1.60;0.40;;;;;;;18.08;55.63;98346.39;227042;1273;25979;-81
2024/04/04 14:40:06;;;;;;;0.60;0.60;;;;;;;17.85;55.15;98342.80;226963;1272;22542;-82
2024/04/04 14:45:11;;;;;;;0.60;0.60;;;;;;;17.87;55.40;98343.79;227095;1274;22564;-82
2024/04/04 14:50:14;;;;;;;1.50;0.60;;;;;;;17.94;54.54;98341.77;227066;1270;23300;-82
2024/04/04 14:55:15;;;;;;;0.90;0.50;;;;;;;17.96;53.79;98337.73;226998;1272;22696;-82
2024/04/04 15:00:17;;;;;;;1.30;0.60;;;;;;;18.00;54.15;98340.77;227041;1251;22546;-82
2024/04/04 15:05:20;;;;;;;1.50;0.70;;;;;;;17.96;53.19;98341.57;227045;1273;22532;-82
2024/04/04 15:10:22;;;;;;;1.20;0.70;;;;;;;17.75;53.67;98338.34;227035;1266;22550;-82
2024/04/04 15:15:24;;;;;;;0.60;0.60;;;;;;;17.53;53.78;98340.05;227034;1273;22896;-82
2024/04/04 15:20:26;;;;;;;0.50;0.30;;;;;;;17.38;54.36;98339.11;226938;1270;22562;-81
2024/04/04 15:25:28;;;;;;;1.30;0.70;;;;;;;17.41;55.22;98327.78;227036;1270;25065;-82
2024/04/04 15:30:32;;;;;;;1.30;0.60;;;;;;;17.49;55.54;98324.39;226926;1273;22629;-82
2024/04/04 15:35:34;;;;;;;1.70;1.10;;;;;;;17.51;55.62;98322.28;226883;1270;22579;-81
2024/04/04 15:40:36;;;;;;;2.00;0.60;;;;;;;17.47;55.55;98322.13;226943;1270;22961;-82
2024/04/04 15:45:37;;;;;;;1.00;0.50;;;;;;;17.35;55.66;98323.69;226956;1270;22473;-82
2024/04/04 15:50:41;;;;;;;0.90;0.50;;;;;;;17.26;56.02;98324.02;226856;1273;22558;-82
2024/04/04 15:55:43;;;;;;;1.10;0.50;;;;;;;17.13;55.84;98319.74;226889;1272;23019;-81
2024/04/04 16:00:44;;;;;;;0.80;0.50;;;;;;;16.98;55.92;98324.66;226926;1272;22532;-81
2024/04/04 16:05:46;;;;;;;1.40;1.10;;;;;;;16.83;56.25;98327.16;226952;1267;22534;-81
2024/04/04 16:10:52;;;;;;;1.30;1.10;;;;;;;16.68;56.74;98326.62;226991;1267;22534;-82
2024/04/04 16:15:54;;;;;;;1.30;1.00;;;;;;;16.55;56.90;98332.00;226777;1269;24227;-82
2024/04/04 16:20:56;;;;;;;2.80;1.50;;;;;;;16.45;57.34;98334.14;226835;1266;22569;-82
2024/04/04 16:26:02;;;;;;;3.20;0.90;;;;;;;16.38;57.71;98337.36;226976;1273;22933;-82
2024/04/04 16:31:05;;;;;;;2.30;0.80;;;;;;;16.36;58.08;98334.49;226886;1270;23190;-82
2024/04/04 16:36:07;;;;;;;1.40;0.90;;;;;;;16.32;58.15;98333.40;226889;1272;22531;-80
2024/04/04 16:41:09;;;;;;;1.20;1.00;;;;;;;16.25;57.86;98324.13;226957;1269;22563;-82
2024/04/04 16:46:11;;;;;;;1.30;1.10;;;;;;;16.15;57.94;98324.90;226957;1271;22575;-81
2024/04/04 16:51:13;;;;;;;2.20;1.20;;;;;;;16.04;57.99;98331.42;227054;1269;24258;-82
2024/04/04 16:56:16;;;;;;;4.50;1.20;;;;;;;15.92;58.59;98329.73;226945;1272;22566;-81
2024/04/04 17:01:18;;;;;;;2.90;1.40;;;;;;;15.78;58.51;98328.58;226944;1271;22538;-82
2024/04/04 17:06:20;;;;;;;2.40;1.50;;;;;;;15.65;58.94;98329.38;226936;1269;22542;-81
2024/04/04 17:11:25;;;;;;;3.20;1.60;;;;;;;15.54;59.27;98326.82;226907;1267;22759;-81
2024/04/04 17:16:28;;;;;;;4.60;1.80;;;;;;;15.42;59.56;98321.79;226950;1268;23207;-81
2024/04/04 17:21:30;;;;;;;3.30;2.20;;;;;;;15.29;59.77;98321.05;226845;1270;22539;-82
2024/04/04 17:26:32;;;;;;;4.80;2.70;;;;;;;15.17;60.24;98332.14;226895;1255;22543;-82
2024/04/04 17:31:35;;;;;;;7.10;3.50;;;;;;;15.02;60.02;98333.52;226845;1270;22538;-81
2024/04/04 17:36:38;;;;;;;6.40;4.00;;;;;;;14.89;60.37;98337.85;226931;1272;23024;-82
2024/04/04 17:41:40;;;;;;;5.90;3.50;;;;;;;14.76;60.89;98345.34;226881;1270;24208;-81
2024/04/04 17:46:42;;;;;;;5.10;3.30;;;;;;;14.71;61.17;98354.45;226915;1272;22542;-81
2024/04/04 17:51:45;;;;;;;6.60;3.30;;;;;;;14.70;61.57;98365.75;227047;1272;22975;-81
2024/04/04 17:56:49;;;;;;;6.10;3.60;;;;;;;14.70;61.97;98380.06;226934;1270;22534;-82
2024/04/04 18:01:51;;;;;;;7.20;3.80;;;;;;;14.68;62.48;98377.00;226873;1272;23269;-81
2024/04/04 18:06:53;;;;;;;7.30;3.90;;;;;;;14.56;63.45;98387.98;226848;1270;22763;-82
2024/04/04 18:11:55;;;;;;;7.00;4.40;;;;;;;14.41;64.24;98412.48;226977;1269;24264;-82
2024/04/04 18:16:57;;;;;;;7.10;4.60;;;;;;;14.21;65.61;98428.45;227024;1270;22550;-83
2024/04/04 18:21:59;;;;;;;5.30;3.60;;;;;;;13.96;66.77;98431.18;227045;1271;21971;-84
2024/04/04 18:27:01;;;;;;;6.80;4.00;;;;;;;13.68;68.34;98436.08;227059;1273;22554;-83
2024/04/04 18:32:04;;;;;;;5.80;3.90;;;;;;;13.42;69.65;98436.02;227004;1273;22530;-83
2024/04/04 18:37:05;;;;;;;7.70;4.90;;;;;;;13.22;70.37;98432.71;226846;1253;22543;-82
2024/04/04 18:42:08;;;;;;;11.90;6.50;;;;;;;13.06;70.83;98422.17;226894;1270;22965;-82
2024/04/04 18:47:11;;;;;;;6.80;4.60;;;;;;;12.94;71.79;98423.77;226962;1272;22569;-82
2024/04/04 18:52:14;;;;;;;7.70;4.60;;;;;;;12.86;72.30;98435.53;226967;1269;24325;-83
2024/04/04 18:57:19;;;;;;;11.40;4.70;;;;;;;12.80;73.27;98434.23;227024;1272;22545;-83
2024/04/04 19:02:21;;;;;;;7.60;4.50;;;;;;;12.71;73.74;98436.49;226922;1271;22581;-81
2024/04/04 19:07:23;;;;;;;8.70;4.50;;;;;;;12.62;74.53;98435.63;226937;1273;22542;-82
2024/04/04 19:12:30;;;;;;;5.70;4.50;;;;;;;12.52;75.09;98435.08;226898;1273;22535;-81
2024/04/04 19:17:33;;;;;;;6.80;4.20;;;;;;;12.42;75.87;98432.23;226792;1270;22545;-84
2024/04/04 19:22:36;;;;;;;7.30;3.80;;;;;;;12.34;76.46;98421.44;226901;1271;26226;-82
2024/04/04 19:27:38;;;;;;;6.40;4.10;;;;;;;12.24;76.97;98419.39;226831;1266;22545;-82
2024/04/04 19:32:40;;;;;;;6.50;4.30;;;;;;;12.16;77.57;98415.21;226879;1271;22539;-82
2024/04/04 19:37:42;;;;;;;6.50;4.40;;;;;;;12.12;77.77;98416.52;226879;1272;22558;-83
2024/04/04 19:42:44;;;;;;;7.10;4.30;;;;;;;12.09;77.98;98418.56;226927;1271;22545;-82
2024/04/04 19:47:45;;;;;;;9.90;4.20;;;;;;;12.06;78.28;98427.07;226957;1273;22546;-82
2024/04/04 19:52:47;;;;;;;6.80;3.40;;;;;;;12.01;78.57;98426.52;226937;1272;22633;-82
2024/04/04 19:57:49;;;;;;;7.30;3.70;;;;;;;11.95;78.87;98426.37;226795;1272;22558;-82
2024/04/04 20:02:51;;;;;;;6.90;3.80;;;;;;;11.90;79.10;98431.13;226901;1272;22539;-81
2024/04/04 20:07:53;;;;;;;6.20;3.80;;;;;;;11.85;79.48;98426.38;226864;1273;22543;-82
2024/04/04 20:12:55;;;;;;;8.40;4.10;;;;;;;11.80;79.70;98423.80;226958;1271;22558;-83
2024/04/04 20:17:57;;;;;;;6.20;3.90;;;;;;;11.75;80.25;98425.16;226883;1271;22561;-82
2024/04/04 20:22:59;;;;;;;7.40;3.50;;;;;;;11.71;80.40;98427.50;226767;1269;22567;-82
2024/04/04 20:28:03;;;;;;;6.40;4.20;;;;;;;11.67;80.68;98420.08;226737;1272;22601;-82
2024/04/04 20:33:06;;;;;;;5.10;3.80;;;;;;;11.65;80.72;98413.64;226820;1271;22564;-81
2024/04/04 20:38:12;;;;;;;6.10;4.10;;;;;;;11.65;80.80;98414.73;226786;1272;22532;-82
2024/04/04 20:43:14;;;;;;;5.00;3.20;;;;;;;11.63;81.14;98414.81;226847;1263;22542;-82
2024/04/04 20:48:16;;;;;;;4.70;2.90;;;;;;;11.60;81.43;98410.25;226736;1269;22567;-83
2024/04/04 20:53:20;;;;;;;4.00;2.30;;;;;;;11.59;81.66;98410.65;226794;1272;22538;-82
2024/04/04 20:58:23;;;;;;;4.00;2.50;;;;;;;11.58;81.84;98413.99;226925;1272;22531;-82
2024/04/04 21:03:25;;;;;;;5.00;2.70;;;;;;;11.56;82.27;98414.30;226792;1272;22534;-82
2024/04/04 21:08:29;;;;;;;5.00;2.80;;;;;;;11.55;82.25;98414.05;226901;1273;22582;-82
2024/04/04 21:13:32;;;;;;;3.90;2.70;;;;;;;11.54;82.45;98418.94;226928;1271;25099;-82
2024/04/04 21:18:34;;;;;;;5.10;2.70;;;;;;;11.55;82.68;98430.17;226850;1271;23497;-82
2024/04/04 21:23:36;;;;;;;3.20;2.50;;;;;;;11.56;82.68;98433.39;226699;1273;22539;-83
2024/04/04 21:28:38;;;;;;;3.60;2.40;;;;;;;11.55;83.04;98433.15;226807;1272;22535;-82
2024/04/04 21:33:40;;;;;;;4.80;2.30;;;;;;;11.54;83.15;98434.85;226627;1272;22539;-83
2024/04/04 21:38:43;;;;;;;3.70;1.80;;;;;;;11.54;83.25;98428.38;226714;1271;22556;-82
2024/04/04 21:43:52;;;;;;;2.80;1.80;;;;;;;11.54;83.34;98421.50;226655;1273;22939;-82
2024/04/04 21:48:55;;;;;;;4.20;2.20;;;;;;;11.54;83.10;98420.28;226714;1270;23648;-83
2024/04/04 21:53:57;;;;;;;3.80;1.90;;;;;;;11.53;83.42;98427.28;226748;1270;22922;-83
2024/04/04 21:58:59;;;;;;;4.00;2.30;;;;;;;11.53;83.59;98429.55;226785;1270;22538;-82
2024/04/04 22:04:00;;;;;;;5.20;2.70;;;;;;;11.54;83.47;98429.44;226858;1272;22496;-83
2024/04/04 22:09:03;;;;;;;4.00;2.50;;;;;;;11.53;83.67;98429.36;226826;1274;22528;-82
2024/04/04 22:14:05;;;;;;;4.00;2.60;;;;;;;11.53;83.79;98418.29;226833;1273;22542;-81
2024/04/04 22:19:07;;;;;;;5.50;2.30;;;;;;;11.52;83.78;98416.77;226771;1269;22563;-82
2024/04/04 22:24:09;;;;;;;3.40;2.10;;;;;;;11.52;83.91;98418.52;226855;1272;23057;-82
2024/04/04 22:29:11;;;;;;;3.50;1.60;;;;;;;11.51;83.84;98419.01;226804;1269;22724;-82
2024/04/04 22:34:14;;;;;;;2.40;1.40;;;;;;;11.51;83.94;98419.25;226809;1271;22537;-81
2024/04/04 22:39:17;;;;;;;3.20;1.50;;;;;;;11.50;83.96;98417.63;226774;1273;22733;-82
2024/04/04 22:44:19;;;;;;;2.10;1.10;;;;;;;11.48;84.03;98428.40;226854;1270;24395;-83
2024/04/04 22:49:21;;;;;;;2.00;1.40;;;;;;;11.47;84.12;98435.64;226683;1273;22547;-82
2024/04/04 22:54:22;;;;;;;2.00;1.30;;;;;;;11.46;84.33;98447.52;226762;1271;22584;-82
2024/04/04 22:59:24;;;;;;;1.70;1.20;;;;;;;11.45;84.12;98450.13;226776;1273;24392;-81
2024/04/04 23:04:26;;;;;;;2.00;1.00;;;;;;;11.46;84.06;98460.06;226787;1273;22682;-81
2024/04/04 23:09:30;;;;;;;2.30;1.00;;;;;;;11.48;83.78;98477.85;226909;1273;22536;-81
2024/04/04 23:14:32;;;;;;;1.90;1.10;;;;;;;11.48;83.85;98488.36;226726;1272;22943;-82
2024/04/04 23:19:34;;;;;;;1.00;0.90;;;;;;;11.44;83.74;98475.64;226857;1273;22578;-81
2024/04/04 23:24:38;;;;;;;1.70;0.80;;;;;;;11.39;83.68;98482.36;226787;1270;23131;-82
2024/04/04 23:29:40;;;;;;;0.60;0.60;;;;;;;11.36;83.92;98484.10;226923;1272;22549;-82